sensor_id;sensor_type;location;lat;lon;timestamp;pressure;altitude;pressure_sealevel;temperature;humidity
77939;BME280;67136;47.546;21.630;2024-03-06T00:00:35;99821.59;;;6.80;100.00
77939;BME280;67136;47.546;21.630;2024-03-06T00:03:38;99826.31;;;6.86;100.00
77939;BME280;67136;47.546;21.630;2024-03-06T00:06:40;99824.19;;;6.80;100.00
77939;BME280;67136;47.546;21.630;2024-03-06T00:09:43;99824.91;;;6.93;100.00
77939;BME280;67136;47.546;21.630;2024-03-06T00:12:47;99824.22;;;7.02;100.00
77939;BME280;67136;47.546;21.630;2024-03-06T00:15:52;99820.00;;;7.23;100.00
77939;BME280;67136;47.546;21.630;2024-03-06T00:18:57;99826.25;;;7.43;100.00
77939;BME280;67136;47.546;21.630;2024-03-06T00:22:00;99827.69;;;7.58;100.00
77939;BME280;67136;47.546;21.630;2024-03-06T00:25:06;99827.31;;;7.74;100.00
77939;BME280;67136;47.546;21.630;2024-03-06T00:28:09;99825.19;;;7.79;100.00
77939;BME280;67136;47.546;21.630;2024-03-06T00:31:11;99821.62;;;7.80;100.00
77939;BME280;67136;47.546;21.630;2024-03-06T00:34:14;99819.75;;;7.82;100.00
77939;BME280;67136;47.546;21.630;2024-03-06T00:37:17;99817.84;;;7.84;100.00
77939;BME280;67136;47.546;21.630;2024-03-06T00:40:20;99812.06;;;7.80;100.00
77939;BME280;67136;47.546;21.630;2024-03-06T00:43:22;99805.84;;;8.14;100.00
77939;BME280;67136;47.546;21.630;2024-03-06T00:46:25;99809.87;;;8.07;100.00
77939;BME280;67136;47.546;21.630;2024-03-06T00:49:28;99817.13;;;7.93;100.00
77939;BME280;67136;47.546;21.630;2024-03-06T00:52:31;99817.59;;;7.87;100.00
77939;BME280;67136;47.546;21.630;2024-03-06T00:55:34;99817.84;;;7.84;100.00
77939;BME280;67136;47.546;21.630;2024-03-06T00:58:42;99811.84;;;7.72;100.00
77939;BME280;67136;47.546;21.630;2024-03-06T01:01:45;99818.81;;;7.05;100.00
77939;BME280;67136;47.546;21.630;2024-03-06T01:04:51;99815.44;;;6.92;100.00
77939;BME280;67136;47.546;21.630;2024-03-06T01:07:53;99821.34;;;6.83;100.00
77939;BME280;67136;47.546;21.630;2024-03-06T01:10:59;99818.31;;;7.11;100.00
77939;BME280;67136;47.546;21.630;2024-03-06T01:14:01;99823.03;;;7.17;100.00
77939;BME280;67136;47.546;21.630;2024-03-06T01:17:04;99821.41;;;7.16;100.00
77939;BME280;67136;47.546;21.630;2024-03-06T01:20:08;99828.97;;;7.08;100.00
77939;BME280;67136;47.546;21.630;2024-03-06T01:23:11;99824.44;;;6.99;100.00
77939;BME280;67136;47.546;21.630;2024-03-06T01:26:14;99820.44;;;7.06;100.00
77939;BME280;67136;47.546;21.630;2024-03-06T01:29:16;99821.84;;;6.99;100.00
77939;BME280;67136;47.546;21.630;2024-03-06T01:32:20;99828.94;;;6.97;100.00
77939;BME280;67136;47.546;21.630;2024-03-06T01:35:23;99822.44;;;7.03;100.00
77939;BME280;67136;47.546;21.630;2024-03-06T01:38:26;99822.81;;;6.98;100.00
77939;BME280;67136;47.546;21.630;2024-03-06T01:41:28;99815.94;;;6.97;100.00
77939;BME280;67136;47.546;21.630;2024-03-06T01:44:31;99817.69;;;6.86;100.00
77939;BME280;67136;47.546;21.630;2024-03-06T01:47:37;99825.59;;;6.84;100.00
77939;BME280;67136;47.546;21.630;2024-03-06T01:50:41;99837.88;;;6.82;100.00
77939;BME280;67136;47.546;21.630;2024-03-06T01:53:43;99839.50;;;6.72;100.00
77939;BME280;67136;47.546;21.630;2024-03-06T01:56:47;99833.37;;;6.73;100.00
77939;BME280;67136;47.546;21.630;2024-03-06T01:59:51;99836.88;;;6.72;100.00
77939;BME280;67136;47.546;21.630;2024-03-06T02:02:54;99825.91;;;6.69;100.00
77939;BME280;67136;47.546;21.630;2024-03-06T02:05:57;99827.19;;;6.63;100.00
77939;BME280;67136;47.546;21.630;2024-03-06T02:09:01;99825.31;;;6.65;100.00
77939;BME280;67136;47.546;21.630;2024-03-06T02:12:06;99820.94;;;6.66;100.00
77939;BME280;67136;47.546;21.630;2024-03-06T02:15:12;99811.88;;;6.71;100.00
77939;BME280;67136;47.546;21.630;2024-03-06T02:18:15;99819.19;;;6.77;100.00
77939;BME280;67136;47.546;21.630;2024-03-06T02:21:19;99827.22;;;6.74;100.00
77939;BME280;67136;47.546;21.630;2024-03-06T02:24:25;99810.91;;;6.72;100.00
77939;BME280;67136;47.546;21.630;2024-03-06T02:27:30;99819.31;;;6.76;100.00
77939;BME280;67136;47.546;21.630;2024-03-06T02:30:34;99819.00;;;6.80;100.00
77939;BME280;67136;47.546;21.630;2024-03-06T02:33:40;99818.03;;;6.92;100.00
77939;BME280;67136;47.546;21.630;2024-03-06T02:36:43;99819.25;;;6.88;100.00
77939;BME280;67136;47.546;21.630;2024-03-06T02:39:46;99823.63;;;6.99;100.00
77939;BME280;67136;47.546;21.630;2024-03-06T02:42:49;99819.47;;;6.96;100.00
77939;BME280;67136;47.546;21.630;2024-03-06T02:45:51;99818.44;;;6.99;100.00
77939;BME280;67136;47.546;21.630;2024-03-06T02:48:54;99820.81;;;7.02;100.00
77939;BME280;67136;47.546;21.630;2024-03-06T02:51:56;99825.66;;;7.06;100.00
77939;BME280;67136;47.546;21.630;2024-03-06T02:55:00;99818.09;;;7.14;100.00
77939;BME280;67136;47.546;21.630;2024-03-06T02:58:03;99816.19;;;7.16;100.00
77939;BME280;67136;47.546;21.630;2024-03-06T03:01:06;99810.75;;;7.19;100.00
77939;BME280;67136;47.546;21.630;2024-03-06T03:04:12;99821.16;;;7.19;100.00
77939;BME280;67136;47.546;21.630;2024-03-06T03:07:15;99821.16;;;7.19;100.00
77939;BME280;67136;47.546;21.630;2024-03-06T03:10:18;99819.75;;;7.15;100.00
77939;BME280;67136;47.546;21.630;2024-03-06T03:13:21;99823.53;;;7.11;100.00
77939;BME280;67136;47.546;21.630;2024-03-06T03:16:29;99826.47;;;7.07;100.00
77939;BME280;67136;47.546;21.630;2024-03-06T03:19:32;99826.47;;;7.07;100.00
77939;BME280;67136;47.546;21.630;2024-03-06T03:22:38;99829.19;;;7.05;100.00
77939;BME280;67136;47.546;21.630;2024-03-06T03:25:43;99821.88;;;7.10;100.00
77939;BME280;67136;47.546;21.630;2024-03-06T03:28:45;99812.53;;;7.08;100.00
77939;BME280;67136;47.546;21.630;2024-03-06T03:31:48;99821.72;;;7.01;100.00
77939;BME280;67136;47.546;21.630;2024-03-06T03:34:50;99820.56;;;6.94;100.00
77939;BME280;67136;47.546;21.630;2024-03-06T03:37:54;99819.84;;;6.92;100.00
77939;BME280;67136;47.546;21.630;2024-03-06T03:40:57;99824.19;;;6.91;100.00
77939;BME280;67136;47.546;21.630;2024-03-06T03:44:00;99824.19;;;6.80;100.00
77939;BME280;67136;47.546;21.630;2024-03-06T03:47:03;99824.84;;;6.71;100.00
77939;BME280;67136;47.546;21.630;2024-03-06T03:50:06;99829.34;;;6.69;100.00
77939;BME280;67136;47.546;21.630;2024-03-06T03:53:12;99825.87;;;6.58;100.00
77939;BME280;67136;47.546;21.630;2024-03-06T03:56:15;99822.66;;;6.54;100.00
77939;BME280;67136;47.546;21.630;2024-03-06T03:59:18;99834.37;;;6.60;100.00
77939;BME280;67136;47.546;21.630;2024-03-06T04:02:21;99843.44;;;6.54;100.00
77939;BME280;67136;47.546;21.630;2024-03-06T04:05:25;99835.38;;;6.46;100.00
77939;BME280;67136;47.546;21.630;2024-03-06T04:08:29;99840.13;;;6.52;100.00
77939;BME280;67136;47.546;21.630;2024-03-06T04:11:32;99841.81;;;6.53;100.00
77939;BME280;67136;47.546;21.630;2024-03-06T04:14:36;99846.38;;;6.50;100.00
77939;BME280;67136;47.546;21.630;2024-03-06T04:17:40;99842.69;;;6.41;100.00
77939;BME280;67136;47.546;21.630;2024-03-06T04:20:45;99848.37;;;6.46;100.00
77939;BME280;67136;47.546;21.630;2024-03-06T04:23:48;99839.13;;;6.42;100.00
77939;BME280;67136;47.546;21.630;2024-03-06T04:26:50;99846.78;;;6.32;100.00
77939;BME280;67136;47.546;21.630;2024-03-06T04:29:53;99849.59;;;6.29;100.00
77939;BME280;67136;47.546;21.630;2024-03-06T04:32:57;99850.59;;;6.16;100.00
77939;BME280;67136;47.546;21.630;2024-03-06T04:36:02;99854.19;;;6.26;100.00
77939;BME280;67136;47.546;21.630;2024-03-06T04:39:05;99860.09;;;6.28;100.00
77939;BME280;67136;47.546;21.630;2024-03-06T04:42:10;99862.88;;;6.25;100.00
77939;BME280;67136;47.546;21.630;2024-03-06T04:45:16;99861.84;;;6.27;100.00
77939;BME280;67136;47.546;21.630;2024-03-06T04:48:19;99863.72;;;6.25;100.00
77939;BME280;67136;47.546;21.630;2024-03-06T04:51:22;99870.69;;;6.25;100.00
77939;BME280;67136;47.546;21.630;2024-03-06T04:54:27;99872.28;;;6.15;100.00
77939;BME280;67136;47.546;21.630;2024-03-06T04:57:30;99877.69;;;6.12;100.00
77939;BME280;67136;47.546;21.630;2024-03-06T05:00:33;99884.56;;;6.13;100.00
77939;BME280;67136;47.546;21.630;2024-03-06T05:03:35;99887.44;;;6.21;100.00
77939;BME280;67136;47.546;21.630;2024-03-06T05:06:56;99895.31;;;6.19;100.00
77939;BME280;67136;47.546;21.630;2024-03-06T05:10:16;99890.75;;;6.23;100.00
77939;BME280;67136;47.546;21.630;2024-03-06T05:13:36;99891.94;;;6.30;100.00
77939;BME280;67136;47.546;21.630;2024-03-06T05:16:56;99894.84;;;6.38;100.00
77939;BME280;67136;47.546;21.630;2024-03-06T05:20:16;99895.88;;;6.36;100.00
77939;BME280;67136;47.546;21.630;2024-03-06T05:23:36;99892.94;;;6.40;100.00
77939;BME280;67136;47.546;21.630;2024-03-06T05:26:56;99893.16;;;6.37;100.00
77939;BME280;67136;47.546;21.630;2024-03-06T05:30:16;99892.84;;;6.42;100.00
77939;BME280;67136;47.546;21.630;2024-03-06T05:33:36;99903.94;;;6.44;100.00
77939;BME280;67136;47.546;21.630;2024-03-06T05:36:56;99906.59;;;6.31;100.00
77939;BME280;67136;47.546;21.630;2024-03-06T05:40:20;99902.75;;;6.37;100.00
77939;BME280;67136;47.546;21.630;2024-03-06T05:43:40;99909.06;;;6.45;100.00
77939;BME280;67136;47.546;21.630;2024-03-06T05:47:02;99920.34;;;6.44;100.00
77939;BME280;67136;47.546;21.630;2024-03-06T05:50:22;99921.59;;;6.51;100.00
77939;BME280;67136;47.546;21.630;2024-03-06T05:53:43;99931.75;;;6.54;100.00
77939;BME280;67136;47.546;21.630;2024-03-06T05:57:03;99933.81;;;6.62;100.00
77939;BME280;67136;47.546;21.630;2024-03-06T06:00:24;99937.78;;;6.78;100.00
77939;BME280;67136;47.546;21.630;2024-03-06T06:03:27;99932.63;;;6.89;100.00
77939;BME280;67136;47.546;21.630;2024-03-06T06:06:30;99934.81;;;7.06;100.00
77939;BME280;67136;47.546;21.630;2024-03-06T06:09:33;99937.25;;;7.31;100.00
77939;BME280;67136;47.546;21.630;2024-03-06T06:12:37;99934.81;;;7.52;100.00
77939;BME280;67136;47.546;21.630;2024-03-06T06:15:40;99931.63;;;7.59;100.00
77939;BME280;67136;47.546;21.630;2024-03-06T06:18:43;99939.22;;;7.63;100.00
77939;BME280;67136;47.546;21.630;2024-03-06T06:21:46;99946.19;;;7.73;100.00
77939;BME280;67136;47.546;21.630;2024-03-06T06:24:50;99945.72;;;7.90;99.43
77939;BME280;67136;47.546;21.630;2024-03-06T06:27:55;99941.59;;;7.88;99.16
77939;BME280;67136;47.546;21.630;2024-03-06T06:30:59;99939.47;;;8.04;98.38
77939;BME280;67136;47.546;21.630;2024-03-06T06:34:02;99942.53;;;8.09;98.11
77939;BME280;67136;47.546;21.630;2024-03-06T06:37:05;99947.75;;;7.98;97.82
77939;BME280;67136;47.546;21.630;2024-03-06T06:40:08;99937.66;;;8.15;96.90
77939;BME280;67136;47.546;21.630;2024-03-06T06:43:12;99939.69;;;8.23;96.40
77939;BME280;67136;47.546;21.630;2024-03-06T06:46:14;99937.31;;;8.09;96.76
77939;BME280;67136;47.546;21.630;2024-03-06T06:49:19;99939.81;;;8.32;95.72
77939;BME280;67136;47.546;21.630;2024-03-06T06:52:22;99950.34;;;8.42;95.08
77939;BME280;67136;47.546;21.630;2024-03-06T06:55:28;99948.66;;;8.52;94.08
77939;BME280;67136;47.546;21.630;2024-03-06T06:58:31;99946.78;;;8.43;94.34
77939;BME280;67136;47.546;21.630;2024-03-06T07:01:34;99952.94;;;8.42;93.44
77939;BME280;67136;47.546;21.630;2024-03-06T07:04:41;99954.50;;;8.44;93.31
77939;BME280;67136;47.546;21.630;2024-03-06T07:07:44;99954.44;;;8.66;92.16
77939;BME280;67136;47.546;21.630;2024-03-06T07:10:47;99943.44;;;8.63;92.19
77939;BME280;67136;47.546;21.630;2024-03-06T07:13:50;99947.56;;;8.97;90.62
77939;BME280;67136;47.546;21.630;2024-03-06T07:16:54;99934.25;;;8.79;90.57
77939;BME280;67136;47.546;21.630;2024-03-06T07:19:58;99960.63;;;9.18;88.58
77939;BME280;67136;47.546;21.630;2024-03-06T07:23:01;99967.00;;;9.25;88.61
77939;BME280;67136;47.546;21.630;2024-03-06T07:26:04;99967.22;;;9.53;86.35
77939;BME280;67136;47.546;21.630;2024-03-06T07:29:07;99969.44;;;9.58;86.59
77939;BME280;67136;47.546;21.630;2024-03-06T07:32:17;99972.69;;;10.80;81.04
77939;BME280;67136;47.546;21.630;2024-03-06T07:35:21;99977.38;;;11.72;76.44
77939;BME280;67136;47.546;21.630;2024-03-06T07:38:23;99975.53;;;12.28;73.49
77939;BME280;67136;47.546;21.630;2024-03-06T07:41:27;99982.19;;;12.23;72.00
77939;BME280;67136;47.546;21.630;2024-03-06T07:44:32;99983.66;;;13.07;68.87
77939;BME280;67136;47.546;21.630;2024-03-06T07:47:35;99982.72;;;13.51;66.29
77939;BME280;67136;47.546;21.630;2024-03-06T07:50:40;99989.19;;;13.82;64.87
77939;BME280;67136;47.546;21.630;2024-03-06T07:53:47;99993.84;;;15.05;61.06
77939;BME280;67136;47.546;21.630;2024-03-06T07:56:52;99988.25;;;13.65;63.69
77939;BME280;67136;47.546;21.630;2024-03-06T07:59:56;99982.97;;;14.42;61.99
77939;BME280;67136;47.546;21.630;2024-03-06T08:02:59;99996.94;;;14.84;60.08
77939;BME280;67136;47.546;21.630;2024-03-06T08:06:03;99994.47;;;14.16;61.30
77939;BME280;67136;47.546;21.630;2024-03-06T08:09:06;100003.84;;;14.44;60.34
77939;BME280;67136;47.546;21.630;2024-03-06T08:12:10;99996.25;;;14.07;61.47
77939;BME280;67136;47.546;21.630;2024-03-06T08:15:13;99997.44;;;13.87;61.71
77939;BME280;67136;47.546;21.630;2024-03-06T08:18:16;99995.66;;;14.21;60.52
77939;BME280;67136;47.546;21.630;2024-03-06T08:21:19;100003.88;;;13.67;62.31
77939;BME280;67136;47.546;21.630;2024-03-06T08:24:22;100003.69;;;13.25;64.29
77939;BME280;67136;47.546;21.630;2024-03-06T08:27:25;100010.78;;;14.19;61.06
77939;BME280;67136;47.546;21.630;2024-03-06T08:30:28;100014.09;;;15.21;57.58
77939;BME280;67136;47.546;21.630;2024-03-06T08:33:32;100011.06;;;15.57;55.71
77939;BME280;67136;47.546;21.630;2024-03-06T08:36:35;100016.34;;;16.28;53.07
77939;BME280;67136;47.546;21.630;2024-03-06T08:39:39;100014.13;;;15.93;54.38
77939;BME280;67136;47.546;21.630;2024-03-06T08:42:42;100015.81;;;15.86;54.20
77939;BME280;67136;47.546;21.630;2024-03-06T08:45:45;100019.44;;;15.53;54.80
77939;BME280;67136;47.546;21.630;2024-03-06T08:48:48;100018.44;;;15.78;54.00
77939;BME280;67136;47.546;21.630;2024-03-06T08:52:00;100014.44;;;15.18;55.28
77939;BME280;67136;47.546;21.630;2024-03-06T08:55:03;100014.09;;;15.05;56.58
77939;BME280;67136;47.546;21.630;2024-03-06T08:58:12;100017.47;;;15.55;55.00
77939;BME280;67136;47.546;21.630;2024-03-06T09:01:16;100017.41;;;15.15;55.74
77939;BME280;67136;47.546;21.630;2024-03-06T09:04:19;100016.06;;;16.15;53.27
77939;BME280;67136;47.546;21.630;2024-03-06T09:07:22;100018.97;;;16.52;53.21
77939;BME280;67136;47.546;21.630;2024-03-06T09:10:28;100020.72;;;16.05;53.24
77939;BME280;67136;47.546;21.630;2024-03-06T09:13:31;100015.44;;;17.89;48.93
77939;BME280;67136;47.546;21.630;2024-03-06T09:16:33;100019.59;;;17.69;49.09
77939;BME280;67136;47.546;21.630;2024-03-06T09:19:36;100021.47;;;18.12;47.87
77939;BME280;67136;47.546;21.630;2024-03-06T09:22:42;100015.81;;;17.86;48.64
77939;BME280;67136;47.546;21.630;2024-03-06T09:25:45;100011.28;;;17.72;48.71
77939;BME280;67136;47.546;21.630;2024-03-06T09:28:48;100016.91;;;18.35;47.39
77939;BME280;67136;47.546;21.630;2024-03-06T09:31:52;100019.28;;;18.15;47.38
77939;BME280;67136;47.546;21.630;2024-03-06T09:34:54;100006.47;;;17.53;48.48
77939;BME280;67136;47.546;21.630;2024-03-06T09:37:57;100012.94;;;18.68;45.58
77939;BME280;67136;47.546;21.630;2024-03-06T09:41:03;100022.47;;;19.19;44.78
77939;BME280;67136;47.546;21.630;2024-03-06T09:44:06;100013.94;;;19.38;44.07
77939;BME280;67136;47.546;21.630;2024-03-06T09:47:13;100013.81;;;18.17;46.47
77939;BME280;67136;47.546;21.630;2024-03-06T09:50:24;100018.53;;;17.02;49.34
77939;BME280;67136;47.546;21.630;2024-03-06T09:53:31;100010.03;;;16.61;50.74
77939;BME280;67136;47.546;21.630;2024-03-06T09:56:34;100008.72;;;17.64;48.80
77939;BME280;67136;47.546;21.630;2024-03-06T09:59:40;100022.12;;;18.28;46.91
77939;BME280;67136;47.546;21.630;2024-03-06T10:02:56;100019.28;;;18.74;45.58
77939;BME280;67136;47.546;21.630;2024-03-06T10:06:02;100013.00;;;17.42;47.69
77939;BME280;67136;47.546;21.630;2024-03-06T10:09:10;100020.06;;;16.66;50.47
77939;BME280;67136;47.546;21.630;2024-03-06T10:12:17;100014.06;;;16.25;51.77
77939;BME280;67136;47.546;21.630;2024-03-06T10:15:20;100015.91;;;16.08;52.49
77939;BME280;67136;47.546;21.630;2024-03-06T10:18:30;100014.16;;;15.77;53.23
77939;BME280;67136;47.546;21.630;2024-03-06T10:21:33;100021.75;;;15.48;54.14
77939;BME280;67136;47.546;21.630;2024-03-06T10:24:39;100020.25;;;15.53;54.64
77939;BME280;67136;47.546;21.630;2024-03-06T10:27:41;100007.81;;;14.89;55.99
77939;BME280;67136;47.546;21.630;2024-03-06T10:30:45;100009.09;;;14.93;56.36
77939;BME280;67136;47.546;21.630;2024-03-06T10:33:48;100004.91;;;14.67;57.50
77939;BME280;67136;47.546;21.630;2024-03-06T10:37:01;100010.16;;;15.09;56.96
77939;BME280;67136;47.546;21.630;2024-03-06T10:40:08;100000.28;;;15.35;56.30
77939;BME280;67136;47.546;21.630;2024-03-06T10:43:15;100014.78;;;16.03;54.07
77939;BME280;67136;47.546;21.630;2024-03-06T10:46:20;100003.56;;;17.48;49.36
77939;BME280;67136;47.546;21.630;2024-03-06T10:49:25;100002.41;;;17.19;49.80
77939;BME280;67136;47.546;21.630;2024-03-06T10:52:33;100002.00;;;17.30;49.15
77939;BME280;67136;47.546;21.630;2024-03-06T10:55:36;99993.75;;;17.33;49.16
77939;BME280;67136;47.546;21.630;2024-03-06T10:58:42;99999.00;;;16.80;50.83
77939;BME280;67136;47.546;21.630;2024-03-06T11:01:46;99999.50;;;16.37;52.15
77939;BME280;67136;47.546;21.630;2024-03-06T11:04:51;99999.16;;;18.58;46.54
77939;BME280;67136;47.546;21.630;2024-03-06T11:07:54;99999.56;;;18.18;46.35
77939;BME280;67136;47.546;21.630;2024-03-06T11:11:23;99992.72;;;18.67;45.35
77939;BME280;67136;47.546;21.630;2024-03-06T11:14:30;99979.56;;;20.34;41.79
77939;BME280;67136;47.546;21.630;2024-03-06T11:17:37;99982.38;;;20.67;40.29
77939;BME280;67136;47.546;21.630;2024-03-06T11:20:40;99972.19;;;20.30;40.77
77939;BME280;67136;47.546;21.630;2024-03-06T11:24:19;99971.31;;;21.82;38.50
77939;BME280;67136;47.546;21.630;2024-03-06T11:27:22;99967.00;;;20.15;41.52
77939;BME280;67136;47.546;21.630;2024-03-06T11:30:26;99951.56;;;20.32;41.60
77939;BME280;67136;47.546;21.630;2024-03-06T11:33:42;99956.41;;;19.18;43.20
77939;BME280;67136;47.546;21.630;2024-03-06T11:36:46;99951.88;;;18.76;44.32
77939;BME280;67136;47.546;21.630;2024-03-06T11:39:49;99958.56;;;18.72;45.03
77939;BME280;67136;47.546;21.630;2024-03-06T11:42:52;99944.62;;;18.49;45.76
77939;BME280;67136;47.546;21.630;2024-03-06T11:46:07;99942.34;;;18.61;45.94
77939;BME280;67136;47.546;21.630;2024-03-06T11:49:19;99941.81;;;18.21;46.51
77939;BME280;67136;47.546;21.630;2024-03-06T11:52:26;99936.56;;;17.32;48.74
77939;BME280;67136;47.546;21.630;2024-03-06T11:55:30;99937.66;;;17.01;49.83
77939;BME280;67136;47.546;21.630;2024-03-06T11:58:35;99940.19;;;16.94;50.32
77939;BME280;67136;47.546;21.630;2024-03-06T12:01:38;99938.25;;;17.71;48.48
77939;BME280;67136;47.546;21.630;2024-03-06T12:04:41;99935.53;;;17.79;48.37
77939;BME280;67136;47.546;21.630;2024-03-06T12:07:49;99932.41;;;17.15;49.64
77939;BME280;67136;47.546;21.630;2024-03-06T12:10:52;99922.47;;;16.42;51.72
77939;BME280;67136;47.546;21.630;2024-03-06T12:13:58;99920.75;;;16.26;52.66
77939;BME280;67136;47.546;21.630;2024-03-06T12:17:01;99920.75;;;16.26;52.87
77939;BME280;67136;47.546;21.630;2024-03-06T12:20:10;99915.34;;;16.50;52.21
77939;BME280;67136;47.546;21.630;2024-03-06T12:23:24;99915.78;;;16.31;52.88
77939;BME280;67136;47.546;21.630;2024-03-06T12:26:28;99918.91;;;16.27;52.91
77939;BME280;67136;47.546;21.630;2024-03-06T12:29:34;99918.00;;;16.42;52.72
77939;BME280;67136;47.546;21.630;2024-03-06T12:32:37;99921.44;;;16.12;52.85
77939;BME280;67136;47.546;21.630;2024-03-06T12:35:42;99918.78;;;15.65;54.71
77939;BME280;67136;47.546;21.630;2024-03-06T12:38:54;99914.69;;;17.47;50.10
77939;BME280;67136;47.546;21.630;2024-03-06T12:41:58;99917.97;;;18.36;46.64
77939;BME280;67136;47.546;21.630;2024-03-06T12:45:04;99918.19;;;17.91;47.94
77939;BME280;67136;47.546;21.630;2024-03-06T12:48:08;99910.59;;;16.76;51.50
77939;BME280;67136;47.546;21.630;2024-03-06T12:51:11;99909.53;;;17.08;50.50
77939;BME280;67136;47.546;21.630;2024-03-06T12:54:14;99909.94;;;17.57;48.59
77939;BME280;67136;47.546;21.630;2024-03-06T12:57:17;99911.81;;;17.71;48.73
77939;BME280;67136;47.546;21.630;2024-03-06T13:00:20;99915.06;;;18.31;47.26
77939;BME280;67136;47.546;21.630;2024-03-06T13:03:23;99917.81;;;20.79;41.47
77939;BME280;67136;47.546;21.630;2024-03-06T13:06:26;99918.41;;;19.59;43.54
77939;BME280;67136;47.546;21.630;2024-03-06T13:09:30;99917.94;;;19.77;43.15
77939;BME280;67136;47.546;21.630;2024-03-06T13:12:33;99919.66;;;20.25;42.08
77939;BME280;67136;47.546;21.630;2024-03-06T13:15:36;99920.00;;;19.54;42.63
77939;BME280;67136;47.546;21.630;2024-03-06T13:18:42;99913.31;;;19.30;43.59
77939;BME280;67136;47.546;21.630;2024-03-06T13:21:45;99912.91;;;18.91;44.92
77939;BME280;67136;47.546;21.630;2024-03-06T13:24:48;99909.94;;;17.19;48.78
77939;BME280;67136;47.546;21.630;2024-03-06T13:27:52;99910.37;;;17.08;49.60
77939;BME280;67136;47.546;21.630;2024-03-06T13:30:56;99910.81;;;17.12;50.45
77939;BME280;67136;47.546;21.630;2024-03-06T13:34:00;99903.00;;;16.43;51.53
77939;BME280;67136;47.546;21.630;2024-03-06T13:37:03;99900.25;;;16.28;52.31
77939;BME280;67136;47.546;21.630;2024-03-06T13:40:08;99901.56;;;17.30;50.40
77939;BME280;67136;47.546;21.630;2024-03-06T13:43:11;99902.50;;;17.75;48.67
77939;BME280;67136;47.546;21.630;2024-03-06T13:46:15;99896.63;;;17.27;49.69
77939;BME280;67136;47.546;21.630;2024-03-06T13:49:36;99899.97;;;17.96;47.36
77939;BME280;67136;47.546;21.630;2024-03-06T13:52:40;99908.13;;;19.43;44.26
77939;BME280;67136;47.546;21.630;2024-03-06T13:55:43;99904.78;;;19.97;43.69
77939;BME280;67136;47.546;21.630;2024-03-06T13:58:46;99899.06;;;21.85;38.79
77939;BME280;67136;47.546;21.630;2024-03-06T14:01:49;99897.75;;;20.77;41.10
77939;BME280;67136;47.546;21.630;2024-03-06T14:04:51;99902.47;;;22.63;37.00
77939;BME280;67136;47.546;21.630;2024-03-06T14:07:54;99889.22;;;21.79;37.49
77939;BME280;67136;47.546;21.630;2024-03-06T14:10:58;99894.09;;;20.78;39.87
77939;BME280;67136;47.546;21.630;2024-03-06T14:14:00;99881.34;;;17.75;46.21
77939;BME280;67136;47.546;21.630;2024-03-06T14:17:03;99878.50;;;17.62;48.11
77939;BME280;67136;47.546;21.630;2024-03-06T14:20:07;99878.69;;;16.55;50.58
77939;BME280;67136;47.546;21.630;2024-03-06T14:23:10;99875.59;;;18.00;46.76
77939;BME280;67136;47.546;21.630;2024-03-06T14:26:12;99881.72;;;18.36;45.84
77939;BME280;67136;47.546;21.630;2024-03-06T14:29:21;99876.88;;;17.61;47.46
77939;BME280;67136;47.546;21.630;2024-03-06T14:32:26;99880.88;;;17.19;48.94
77939;BME280;67136;47.546;21.630;2024-03-06T14:35:29;99878.13;;;17.27;48.23
77939;BME280;67136;47.546;21.630;2024-03-06T14:38:33;99882.16;;;17.61;47.36
77939;BME280;67136;47.546;21.630;2024-03-06T14:41:36;99884.16;;;19.30;43.00
77939;BME280;67136;47.546;21.630;2024-03-06T14:44:39;99875.84;;;17.62;47.14
77939;BME280;67136;47.546;21.630;2024-03-06T14:47:44;99869.69;;;16.42;50.40
77939;BME280;67136;47.546;21.630;2024-03-06T14:50:47;99867.38;;;16.08;51.76
77939;BME280;67136;47.546;21.630;2024-03-06T14:53:50;99879.13;;;14.86;55.66
77939;BME280;67136;47.546;21.630;2024-03-06T14:56:53;99868.78;;;14.19;58.34
77939;BME280;67136;47.546;21.630;2024-03-06T14:59:56;99871.69;;;14.08;58.89
77939;BME280;67136;47.546;21.630;2024-03-06T15:03:00;99867.19;;;13.93;58.61
77939;BME280;67136;47.546;21.630;2024-03-06T15:06:04;99871.31;;;13.61;60.60
77939;BME280;67136;47.546;21.630;2024-03-06T15:09:08;99859.88;;;13.19;62.68
77939;BME280;67136;47.546;21.630;2024-03-06T15:12:16;99864.25;;;12.76;64.98
77939;BME280;67136;47.546;21.630;2024-03-06T15:15:21;99873.47;;;12.44;66.74
77939;BME280;67136;47.546;21.630;2024-03-06T15:18:24;99867.34;;;12.26;67.95
77939;BME280;67136;47.546;21.630;2024-03-06T15:21:27;99872.41;;;12.37;67.88
77939;BME280;67136;47.546;21.630;2024-03-06T15:24:32;99870.66;;;12.28;68.10
77939;BME280;67136;47.546;21.630;2024-03-06T15:27:35;99873.81;;;12.32;68.15
77939;BME280;67136;47.546;21.630;2024-03-06T15:30:38;99872.72;;;12.07;68.95
77939;BME280;67136;47.546;21.630;2024-03-06T15:33:41;99871.72;;;11.81;69.91
77939;BME280;67136;47.546;21.630;2024-03-06T15:36:44;99871.97;;;11.88;69.41
77939;BME280;67136;47.546;21.630;2024-03-06T15:39:47;99876.19;;;11.71;70.23
77939;BME280;67136;47.546;21.630;2024-03-06T15:42:51;99884.22;;;11.60;70.88
77939;BME280;67136;47.546;21.630;2024-03-06T15:45:56;99876.50;;;11.59;71.16
77939;BME280;67136;47.546;21.630;2024-03-06T15:49:06;99886.72;;;11.43;72.27
77939;BME280;67136;47.546;21.630;2024-03-06T15:52:09;99887.56;;;11.43;72.74
77939;BME280;67136;47.546;21.630;2024-03-06T15:55:13;99888.97;;;11.28;74.11
77939;BME280;67136;47.546;21.630;2024-03-06T15:58:15;99889.94;;;11.27;73.96
77939;BME280;67136;47.546;21.630;2024-03-06T16:01:18;99888.34;;;10.78;75.84
77939;BME280;67136;47.546;21.630;2024-03-06T16:04:21;99889.00;;;10.80;76.18
77939;BME280;67136;47.546;21.630;2024-03-06T16:07:24;99893.28;;;11.10;74.83